OEWSP LOWS-LSZR
Flight info
| Callsign | OEWSP |
|---|---|
| Flight time | 0h 25m |
| Altitude | 22000 |
| Route | TRAUN L856 KPT |
| Aircraft | LJ35/M-SDFGILRWY/SB1 |
Departure
| Time | 2026-04-23 14:40 |
|---|---|
| Airport | Salzburg Airport (LOWS) |
Arrival
| Time | 2026-04-23 15:05 |
|---|---|
| Airport | Sankt Gallen Altenrhein Airport (LSZR) |
| Time | Latitude | Longitude | Altitude | Speed | Heading |
|---|---|---|---|---|---|
| 2026-04-23 14:31 | 47.79519 | 12.99818 | 1414 ft | 0 kts | 336° |
| 2026-04-23 14:33 | 47.79526 | 12.99816 | 1441 ft | 3 kts | 10° |
| 2026-04-23 14:33 | 47.79542 | 12.99867 | 1408 ft | 9 kts | 77° |
| 2026-04-23 14:33 | 47.79561 | 12.99964 | 1414 ft | 9 kts | 104° |
| 2026-04-23 14:34 | 47.79504 | 13.00020 | 1414 ft | 11 kts | 157° |
| 2026-04-23 14:34 | 47.79434 | 13.00064 | 1414 ft | 11 kts | 157° |
| 2026-04-23 14:34 | 47.79360 | 13.00109 | 1414 ft | 13 kts | 156° |
| 2026-04-23 14:34 | 47.79271 | 13.00165 | 1414 ft | 15 kts | 155° |
| 2026-04-23 14:35 | 47.79166 | 13.00235 | 1414 ft | 18 kts | 158° |
| 2026-04-23 14:35 | 47.79049 | 13.00306 | 1414 ft | 17 kts | 157° |
| 2026-04-23 14:35 | 47.78972 | 13.00354 | 1414 ft | 12 kts | 156° |
| 2026-04-23 14:35 | 47.78890 | 13.00406 | 1414 ft | 14 kts | 156° |
| 2026-04-23 14:36 | 47.78793 | 13.00468 | 1414 ft | 16 kts | 156° |
| 2026-04-23 14:36 | 47.78680 | 13.00539 | 1414 ft | 19 kts | 158° |
| 2026-04-23 14:36 | 47.78554 | 13.00619 | 1414 ft | 21 kts | 157° |
| 2026-04-23 14:36 | 47.78416 | 13.00707 | 1414 ft | 21 kts | 157° |
| 2026-04-23 14:37 | 47.78310 | 13.00774 | 1414 ft | 13 kts | 156° |
| 2026-04-23 14:37 | 47.78230 | 13.00834 | 1414 ft | 10 kts | 143° |
| 2026-04-23 14:37 | 47.78207 | 13.00865 | 1414 ft | 0 kts | 133° |
| 2026-04-23 14:38 | 47.78204 | 13.00869 | 1414 ft | 4 kts | 133° |
| 2026-04-23 14:38 | 47.78181 | 13.00948 | 1414 ft | 11 kts | 89° |
| 2026-04-23 14:39 | 47.78210 | 13.01067 | 1414 ft | 11 kts | 52° |
| 2026-04-23 14:39 | 47.78246 | 13.01080 | 1413 ft | 2 kts | 336° |
| 2026-04-23 14:39 | 47.78246 | 13.01079 | 1413 ft | 0 kts | 336° |
| 2026-04-23 14:39 | 47.78267 | 13.01066 | 1415 ft | 16 kts | 336° |
| 2026-04-23 14:40 | 47.78644 | 13.00828 | 1414 ft | 108 kts | 337° |
| 2026-04-23 14:40 | 47.79551 | 13.00253 | 1818 ft | 163 kts | 333° |
| 2026-04-23 14:40 | 47.80611 | 12.99516 | 3001 ft | 167 kts | 332° |
| 2026-04-23 14:40 | 47.81645 | 12.98807 | 4177 ft | 161 kts | 333° |
| 2026-04-23 14:41 | 47.82599 | 12.97752 | 4863 ft | 196 kts | 305° |
| 2026-04-23 14:41 | 47.83346 | 12.95806 | 5446 ft | 236 kts | 299° |
| 2026-04-23 14:41 | 47.84202 | 12.93591 | 6424 ft | 250 kts | 301° |
| 2026-04-23 14:41 | 47.85073 | 12.91366 | 7771 ft | 254 kts | 302° |
| 2026-04-23 14:42 | 47.85974 | 12.89056 | 8959 ft | 263 kts | 302° |
| 2026-04-23 14:42 | 47.86887 | 12.86674 | 10203 ft | 268 kts | 303° |
| 2026-04-23 14:42 | 47.87821 | 12.84241 | 11317 ft | 274 kts | 304° |
| 2026-04-23 14:42 | 47.88783 | 12.81754 | 12416 ft | 282 kts | 304° |
| 2026-04-23 14:43 | 47.89781 | 12.79183 | 13287 ft | 299 kts | 305° |
| 2026-04-23 14:43 | 47.90871 | 12.76364 | 13608 ft | 330 kts | 304° |
| 2026-04-23 14:43 | 47.92052 | 12.73279 | 13952 ft | 356 kts | 304° |
| 2026-04-23 14:43 | 47.93253 | 12.70047 | 14840 ft | 359 kts | 303° |
| 2026-04-23 14:44 | 47.94470 | 12.66757 | 15622 ft | 366 kts | 303° |
| 2026-04-23 14:44 | 47.95712 | 12.63424 | 16427 ft | 372 kts | 302° |
| 2026-04-23 14:44 | 47.96636 | 12.59773 | 17209 ft | 384 kts | 289° |
| 2026-04-23 14:44 | 47.97025 | 12.55777 | 17983 ft | 397 kts | 276° |
| 2026-04-23 14:45 | 47.96830 | 12.51630 | 18737 ft | 406 kts | 265° |
| 2026-04-23 14:45 | 47.96433 | 12.47432 | 19369 ft | 413 kts | 265° |
| 2026-04-23 14:45 | 47.96030 | 12.43174 | 20013 ft | 418 kts | 265° |
| 2026-04-23 14:45 | 47.95631 | 12.38869 | 20649 ft | 423 kts | 266° |
| 2026-04-23 14:46 | 47.95226 | 12.34505 | 21246 ft | 428 kts | 265° |
| 2026-04-23 14:46 | 47.94810 | 12.30089 | 21841 ft | 433 kts | 265° |
| 2026-04-23 14:46 | 47.94387 | 12.25616 | 22274 ft | 442 kts | 265° |
| 2026-04-23 14:46 | 47.93952 | 12.20991 | 22282 ft | 459 kts | 265° |
| 2026-04-23 14:47 | 47.93498 | 12.16217 | 22291 ft | 473 kts | 265° |
| 2026-04-23 14:47 | 47.93018 | 12.11323 | 22291 ft | 483 kts | 265° |
| 2026-04-23 14:47 | 47.92530 | 12.06345 | 22293 ft | 491 kts | 265° |
| 2026-04-23 14:47 | 47.92038 | 12.01289 | 22295 ft | 496 kts | 265° |
| 2026-04-23 14:48 | 47.91539 | 11.96186 | 22293 ft | 500 kts | 265° |
| 2026-04-23 14:48 | 47.91032 | 11.91051 | 22292 ft | 502 kts | 264° |
| 2026-04-23 14:48 | 47.90528 | 11.85990 | 22293 ft | 483 kts | 264° |
| 2026-04-23 14:48 | 47.90039 | 11.81091 | 22288 ft | 477 kts | 265° |
| 2026-04-23 14:49 | 47.89556 | 11.76209 | 22284 ft | 477 kts | 265° |
| 2026-04-23 14:49 | 47.89073 | 11.71321 | 22281 ft | 478 kts | 264° |
| 2026-04-23 14:49 | 47.88587 | 11.66437 | 22283 ft | 478 kts | 264° |
| 2026-04-23 14:49 | 47.88094 | 11.61535 | 22283 ft | 481 kts | 264° |
| 2026-04-23 14:50 | 47.87592 | 11.56607 | 22280 ft | 485 kts | 264° |
| 2026-04-23 14:50 | 47.87090 | 11.51641 | 22283 ft | 487 kts | 264° |
| 2026-04-23 14:50 | 47.86587 | 11.46654 | 22285 ft | 489 kts | 264° |
| 2026-04-23 14:50 | 47.86077 | 11.41652 | 22286 ft | 490 kts | 264° |
| 2026-04-23 14:51 | 47.85562 | 11.36650 | 22290 ft | 491 kts | 264° |
| 2026-04-23 14:51 | 47.85043 | 11.31629 | 22290 ft | 491 kts | 264° |
| 2026-04-23 14:51 | 47.84525 | 11.26615 | 22290 ft | 492 kts | 264° |
| 2026-04-23 14:51 | 47.84003 | 11.21593 | 22289 ft | 492 kts | 264° |
| 2026-04-23 14:52 | 47.83479 | 11.16573 | 22296 ft | 492 kts | 263° |
| 2026-04-23 14:52 | 47.82951 | 11.11554 | 22294 ft | 492 kts | 263° |
| 2026-04-23 14:52 | 47.82422 | 11.06526 | 22299 ft | 492 kts | 263° |
| 2026-04-23 14:52 | 47.81896 | 11.01593 | 22296 ft | 492 kts | 263° |
| 2026-04-23 14:53 | 47.81404 | 10.97026 | 22297 ft | 492 kts | 263° |
| 2026-04-23 14:53 | 47.80865 | 10.92013 | 21611 ft | 487 kts | 263° |
| 2026-04-23 14:53 | 47.80345 | 10.87119 | 20751 ft | 472 kts | 263° |
| 2026-04-23 14:53 | 47.79830 | 10.82372 | 20022 ft | 458 kts | 263° |
| 2026-04-23 14:54 | 47.79328 | 10.77814 | 19643 ft | 439 kts | 263° |
| 2026-04-23 14:54 | 47.78845 | 10.73419 | 19275 ft | 424 kts | 263° |
| 2026-04-23 14:54 | 47.78383 | 10.69158 | 18917 ft | 413 kts | 263° |
| 2026-04-23 14:54 | 47.77928 | 10.65001 | 18554 ft | 404 kts | 263° |
| 2026-04-23 14:55 | 47.77476 | 10.60920 | 18152 ft | 397 kts | 263° |
| 2026-04-23 14:55 | 47.77030 | 10.56911 | 17757 ft | 390 kts | 263° |
| 2026-04-23 14:55 | 47.76618 | 10.53195 | 17386 ft | 385 kts | 263° |
| 2026-04-23 14:55 | 47.76184 | 10.49295 | 16994 ft | 381 kts | 263° |
| 2026-04-23 14:56 | 47.75754 | 10.45445 | 16609 ft | 377 kts | 262° |
| 2026-04-23 14:56 | 47.75322 | 10.41638 | 16227 ft | 373 kts | 263° |
| 2026-04-23 14:56 | 47.74896 | 10.37861 | 15851 ft | 370 kts | 263° |
| 2026-04-23 14:56 | 47.74368 | 10.34141 | 15475 ft | 369 kts | 254° |
| 2026-04-23 14:57 | 47.73481 | 10.30578 | 15113 ft | 367 kts | 251° |
| 2026-04-23 14:57 | 47.72608 | 10.27040 | 14767 ft | 365 kts | 252° |
| 2026-04-23 14:57 | 47.71756 | 10.23510 | 14432 ft | 363 kts | 252° |
| 2026-04-23 14:57 | 47.70894 | 10.20009 | 14102 ft | 361 kts | 251° |
| 2026-04-23 14:58 | 47.70028 | 10.16537 | 13720 ft | 359 kts | 251° |
| 2026-04-23 14:58 | 47.69169 | 10.13075 | 13360 ft | 357 kts | 251° |
| 2026-04-23 14:58 | 47.68318 | 10.09635 | 12960 ft | 353 kts | 251° |
| 2026-04-23 14:58 | 47.67483 | 10.06252 | 12224 ft | 345 kts | 251° |
| 2026-04-23 14:59 | 47.66669 | 10.02966 | 11519 ft | 334 kts | 251° |
| 2026-04-23 14:59 | 47.65874 | 9.99786 | 10837 ft | 325 kts | 251° |
| 2026-04-23 14:59 | 47.65113 | 9.96745 | 10645 ft | 302 kts | 251° |
| 2026-04-23 14:59 | 47.64384 | 9.93817 | 9817 ft | 304 kts | 251° |
| 2026-04-23 15:00 | 47.63656 | 9.90908 | 9152 ft | 300 kts | 251° |
| 2026-04-23 15:00 | 47.62932 | 9.88027 | 8505 ft | 297 kts | 250° |
| 2026-04-23 15:00 | 47.62217 | 9.85186 | 7831 ft | 294 kts | 250° |
| 2026-04-23 15:00 | 47.61515 | 9.82370 | 7202 ft | 289 kts | 250° |
| 2026-04-23 15:01 | 47.60819 | 9.79603 | 6677 ft | 285 kts | 250° |
| 2026-04-23 15:01 | 47.60125 | 9.76862 | 5961 ft | 284 kts | 250° |
| 2026-04-23 15:01 | 47.59437 | 9.74148 | 5331 ft | 281 kts | 250° |
| 2026-04-23 15:01 | 47.58758 | 9.71463 | 4995 ft | 270 kts | 251° |
| 2026-04-23 15:02 | 47.58132 | 9.68979 | 4992 ft | 248 kts | 251° |
| 2026-04-23 15:02 | 47.57357 | 9.66792 | 4792 ft | 238 kts | 232° |
| 2026-04-23 15:02 | 47.56101 | 9.65382 | 4609 ft | 218 kts | 201° |
| 2026-04-23 15:02 | 47.54767 | 9.64956 | 4131 ft | 183 kts | 184° |
| 2026-04-23 15:03 | 47.53528 | 9.64826 | 3412 ft | 173 kts | 185° |
| 2026-04-23 15:03 | 47.52386 | 9.64525 | 2901 ft | 166 kts | 193° |
| 2026-04-23 15:03 | 47.51299 | 9.64107 | 2466 ft | 157 kts | 199° |
| 2026-04-23 15:03 | 47.50324 | 9.63537 | 2284 ft | 145 kts | 206° |
| 2026-04-23 15:04 | 47.49399 | 9.62890 | 2112 ft | 148 kts | 210° |
| 2026-04-23 15:04 | 47.48546 | 9.62113 | 1982 ft | 142 kts | 224° |
| 2026-04-23 15:04 | 47.48031 | 9.60935 | 1776 ft | 135 kts | 264° |
| 2026-04-23 15:04 | 47.48094 | 9.59612 | 1726 ft | 128 kts | 281° |
| 2026-04-23 15:05 | 47.48266 | 9.58305 | 1555 ft | 130 kts | 279° |
| 2026-04-23 15:05 | 47.48407 | 9.56988 | 1347 ft | 130 kts | 278° |
| 2026-04-23 15:05 | 47.48521 | 9.55910 | 1311 ft | 61 kts | 279° |
| 2026-04-23 15:05 | 47.48560 | 9.55534 | 1310 ft | 22 kts | 280° |
| 2026-04-23 15:06 | 47.48577 | 9.55376 | 1310 ft | 9 kts | 279° |
| 2026-04-23 15:06 | 47.48581 | 9.55347 | 1310 ft | 1 kts | 286° |
| 2026-04-23 15:06 | 47.48620 | 9.55329 | 1309 ft | 6 kts | 8° |
| 2026-04-23 15:06 | 47.48667 | 9.55339 | 1309 ft | 6 kts | 8° |
| 2026-04-23 15:07 | 47.48701 | 9.55346 | 1309 ft | 5 kts | 7° |
| 2026-04-23 15:07 | 47.48725 | 9.55349 | 1309 ft | 4 kts | 354° |
| 2026-04-23 15:07 | 47.48740 | 9.55301 | 1309 ft | 7 kts | 278° |
| 2026-04-23 15:07 | 47.48737 | 9.55256 | 1309 ft | 4 kts | 200° |
| 2026-04-23 15:08 | 47.48711 | 9.55227 | 1309 ft | 5 kts | 278° |
| 2026-04-23 15:08 | 47.48722 | 9.55207 | 1309 ft | 1 kts | 13° |
| 2026-04-23 15:08 | 47.48724 | 9.55208 | 1309 ft | 0 kts | 12° |